Time;durP1;ratioP1;P1;durP2;ratioP2;P2;SDS_P1;SDS_P2;PMS_P1;PMS_P2;Temp;Humidity;BMP_temperature;BMP_pressure;BME280_temperature;BME280_humidity;BME280_pressure;Samples;Min_cycle;Max_cycle;Signal;HPM_P1;HPM_P2
2022/09/04 00:00:48;;;;;;;3.10;2.00;;;;;;;;;;5013222;28;20198;-78
2022/09/04 00:03:27;;;;;;;2.53;2.27;;;;;;;;;;5012535;28;20365;-77
2022/09/04 00:05:56;;;;;;;2.37;2.17;;;;;;;;;;5012323;28;20240;-77
2022/09/04 00:08:21;;;;;;;3.27;2.20;;;;;;;;;;4995935;28;20218;-77
2022/09/04 00:11:03;;;;;;;2.60;2.20;;;;;;;;;;5011695;28;20172;-77
2022/09/04 00:13:48;;;;;;;2.30;2.10;;;;;;;;;;5012092;28;20174;-77
2022/09/04 00:16:18;;;;;;;2.40;2.20;;;;;;;;;;5012106;28;20526;-77
2022/09/04 00:18:52;;;;;;;3.57;2.20;;;;;;;;;;5011882;28;20173;-78
2022/09/04 00:21:28;;;;;;;2.80;2.00;;;;;;;;;;5011961;28;20201;-77
2022/09/04 00:23:59;;;;;;;2.10;2.00;;;;;;;;;;5011963;28;20199;-77
2022/09/04 00:26:49;;;;;;;2.43;2.23;;;;;;;;;;5007618;28;20188;-77
2022/09/04 00:29:20;;;;;;;3.37;2.20;;;;;;;;;;5007696;28;20179;-77
2022/09/04 00:31:48;;;;;;;2.37;2.17;;;;;;;;;;5011708;28;20195;-77
2022/09/04 00:34:21;;;;;;;2.90;2.23;;;;;;;;;;4995500;28;20183;-77
2022/09/04 00:36:51;;;;;;;9.67;7.20;;;;;;;;;;5011100;28;20278;-77
2022/09/04 00:39:37;;;;;;;2.67;2.00;;;;;;;;;;5012768;28;20263;-77
2022/09/04 00:42:22;;;;;;;67.63;5.53;;;;;;;;;;5011377;28;20635;-77
2022/09/04 00:45:06;;;;;;;1.73;1.63;;;;;;;;;;5011473;28;20179;-77
2022/09/04 00:47:37;;;;;;;2.67;2.00;;;;;;;;;;5008904;28;20294;-77
2022/09/04 00:50:20;;;;;;;2.87;2.40;;;;;;;;;;5011140;28;20171;-77
2022/09/04 00:53:12;;;;;;;2.23;2.03;;;;;;;;;;5012730;28;20214;-78
2022/09/04 00:55:53;;;;;;;2.40;2.20;;;;;;;;;;5012679;28;20179;-77
2022/09/04 00:58:29;;;;;;;2.40;2.20;;;;;;;;;;5011352;28;20190;-77
2022/09/04 01:00:56;;;;;;;3.00;2.20;;;;;;;;;;5011120;28;20206;-77
2022/09/04 01:03:41;;;;;;;2.50;2.30;;;;;;;;;;5011437;28;20181;-77
2022/09/04 01:06:28;;;;;;;2.43;2.20;;;;;;;;;;5011730;28;20179;-77
2022/09/04 01:09:13;;;;;;;2.23;2.03;;;;;;;;;;5011305;28;20301;-76
2022/09/04 01:11:51;;;;;;;3.13;2.00;;;;;;;;;;5011480;28;20194;-76
2022/09/04 01:14:38;;;;;;;3.23;2.13;;;;;;;;;;5011422;28;20182;-77
2022/09/04 01:17:08;;;;;;;2.83;2.57;;;;;;;;;;5012429;28;20183;-77
2022/09/04 01:19:49;;;;;;;3.17;2.13;;;;;;;;;;5010946;28;20174;-77
2022/09/04 01:22:23;;;;;;;2.53;2.30;;;;;;;;;;5011193;28;20199;-76
2022/09/04 01:24:55;;;;;;;2.67;2.47;;;;;;;;;;5011189;28;20233;-77
2022/09/04 01:27:21;;;;;;;4.07;2.17;;;;;;;;;;5011067;28;20218;-76
2022/09/04 01:30:00;;;;;;;2.17;2.07;;;;;;;;;;5010988;28;20171;-77
2022/09/04 01:32:31;;;;;;;2.70;2.30;;;;;;;;;;5010906;28;20230;-77
2022/09/04 01:35:16;;;;;;;2.27;2.07;;;;;;;;;;5010935;28;20175;-77
2022/09/04 01:37:51;;;;;;;2.27;1.93;;;;;;;;;;5012702;28;20258;-76
2022/09/04 01:40:17;;;;;;;2.30;2.10;;;;;;;;;;5011060;28;20178;-77
2022/09/04 01:42:49;;;;;;;1.90;1.80;;;;;;;;;;5010848;28;20237;-76
2022/09/04 01:45:19;;;;;;;2.13;2.03;;;;;;;;;;4994796;28;20274;-76
2022/09/04 01:47:51;;;;;;;4.17;2.10;;;;;;;;;;5011361;28;20276;-77
2022/09/04 01:50:20;;;;;;;3.40;2.20;;;;;;;;;;4998442;28;20183;-77
2022/09/04 01:52:57;;;;;;;2.53;2.27;;;;;;;;;;5015911;28;20226;-76
2022/09/04 01:55:31;;;;;;;2.63;2.30;;;;;;;;;;5015932;28;20170;-77
2022/09/04 01:58:03;;;;;;;2.20;2.00;;;;;;;;;;5014781;28;20586;-77
2022/09/04 02:00:33;;;;;;;2.33;2.13;;;;;;;;;;5015573;28;20271;-77
2022/09/04 02:03:07;;;;;;;2.40;2.20;;;;;;;;;;5014575;28;20183;-77
2022/09/04 02:05:34;;;;;;;2.50;2.30;;;;;;;;;;5015702;28;20166;-77
2022/09/04 02:08:01;;;;;;;2.43;2.23;;;;;;;;;;5014313;28;20234;-77
2022/09/04 02:10:53;;;;;;;3.00;2.00;;;;;;;;;;5014240;28;20629;-77
2022/09/04 02:13:22;;;;;;;2.63;2.20;;;;;;;;;;5010699;28;20233;-76
2022/09/04 02:16:03;;;;;;;2.53;2.33;;;;;;;;;;5014301;28;20269;-77
2022/09/04 02:18:44;;;;;;;2.90;2.27;;;;;;;;;;5014390;28;20179;-77
2022/09/04 02:21:17;;;;;;;2.33;2.13;;;;;;;;;;5014162;28;20226;-77
2022/09/04 02:23:43;;;;;;;2.70;2.17;;;;;;;;;;5014239;28;20210;-77
2022/09/04 02:26:15;;;;;;;2.47;2.27;;;;;;;;;;5015361;28;20182;-77
2022/09/04 02:28:41;;;;;;;3.60;2.40;;;;;;;;;;5014364;28;20187;-76
2022/09/04 02:31:24;;;;;;;2.50;2.30;;;;;;;;;;5013806;28;20201;-76
2022/09/04 02:33:55;;;;;;;3.80;2.30;;;;;;;;;;5013927;28;20625;-76
2022/09/04 02:36:37;;;;;;;1.97;1.83;;;;;;;;;;5014369;28;20228;-77
2022/09/04 02:39:13;;;;;;;2.30;2.10;;;;;;;;;;5013985;28;20171;-76
2022/09/04 02:41:49;;;;;;;2.77;2.23;;;;;;;;;;5013692;28;20202;-77
2022/09/04 02:44:15;;;;;;;2.43;2.00;;;;;;;;;;5015385;28;20167;-76
2022/09/04 02:46:50;;;;;;;2.37;2.13;;;;;;;;;;5014886;28;20249;-76
2022/09/04 02:49:16;;;;;;;2.50;2.30;;;;;;;;;;5013514;28;20174;-77
2022/09/04 02:52:00;;;;;;;2.17;2.00;;;;;;;;;;5013826;28;20197;-76
2022/09/04 02:54:42;;;;;;;2.40;2.20;;;;;;;;;;5013838;28;20221;-77
2022/09/04 02:57:23;;;;;;;2.80;2.60;;;;;;;;;;5013487;28;20181;-76
2022/09/04 03:00:26;;;;;;;2.40;2.20;;;;;;;;;;5012397;28;20248;-77
2022/09/04 03:03:09;;;;;;;2.60;2.40;;;;;;;;;;5013240;28;20232;-76
2022/09/04 03:05:40;;;;;;;2.57;2.37;;;;;;;;;;5013392;28;20183;-77
2022/09/04 03:08:12;;;;;;;2.30;2.10;;;;;;;;;;5013252;28;20221;-77
2022/09/04 03:10:44;;;;;;;2.40;2.20;;;;;;;;;;5013034;28;20203;-77
2022/09/04 03:13:24;;;;;;;2.63;2.10;;;;;;;;;;5013359;28;20225;-77
2022/09/04 03:15:53;;;;;;;4.07;2.40;;;;;;;;;;5014587;28;20166;-77
2022/09/04 03:18:26;;;;;;;2.37;2.20;;;;;;;;;;5013102;28;20175;-76
2022/09/04 03:21:05;;;;;;;3.17;2.30;;;;;;;;;;5013100;28;20265;-77
2022/09/04 03:23:43;;;;;;;2.50;2.30;;;;;;;;;;5012964;28;20629;-77
2022/09/04 03:26:09;;;;;;;2.80;2.23;;;;;;;;;;5014238;28;20174;-76
2022/09/04 03:28:44;;;;;;;2.77;2.47;;;;;;;;;;5012878;28;20209;-76
2022/09/04 03:31:20;;;;;;;2.50;2.30;;;;;;;;;;5012843;28;20198;-77
2022/09/04 03:33:50;;;;;;;2.50;2.30;;;;;;;;;;5013242;28;20179;-76
2022/09/04 03:36:23;;;;;;;2.00;1.90;;;;;;;;;;5012927;28;20179;-76
2022/09/04 03:38:49;;;;;;;2.47;2.27;;;;;;;;;;5012590;28;20186;-76
2022/09/04 03:41:28;;;;;;;2.40;2.20;;;;;;;;;;5012583;28;20241;-76
2022/09/04 03:44:13;;;;;;;2.50;2.30;;;;;;;;;;5012718;28;20179;-77
2022/09/04 03:46:52;;;;;;;3.57;2.57;;;;;;;;;;5012538;28;20213;-77
2022/09/04 03:49:25;;;;;;;2.40;2.20;;;;;;;;;;5012416;28;20262;-76
2022/09/04 03:52:04;;;;;;;2.53;2.33;;;;;;;;;;5012310;28;20222;-77
2022/09/04 03:54:49;;;;;;;2.20;2.10;;;;;;;;;;5012662;28;20261;-77
2022/09/04 03:57:30;;;;;;;2.40;2.20;;;;;;;;;;5013648;28;20358;-76
2022/09/04 04:00:09;;;;;;;2.73;2.40;;;;;;;;;;5012233;28;20253;-77
2022/09/04 04:02:53;;;;;;;2.70;2.50;;;;;;;;;;5013671;28;20190;-76
2022/09/04 04:05:24;;;;;;;2.77;2.27;;;;;;;;;;5012333;28;20660;-77
2022/09/04 04:07:50;;;;;;;2.43;2.23;;;;;;;;;;5012170;28;20198;-77
2022/09/04 04:10:18;;;;;;;2.83;2.50;;;;;;;;;;5013297;28;20175;-77
2022/09/04 04:12:44;;;;;;;2.60;2.40;;;;;;;;;;5013267;28;20191;-76
2022/09/04 04:15:16;;;;;;;2.53;2.33;;;;;;;;;;5012448;28;20175;-77
2022/09/04 04:17:50;;;;;;;3.30;2.50;;;;;;;;;;5012085;28;20179;-77
2022/09/04 04:20:30;;;;;;;2.60;2.40;;;;;;;;;;5012241;28;20182;-77
2022/09/04 04:23:16;;;;;;;3.20;2.40;;;;;;;;;;5011873;28;20212;-77
2022/09/04 04:25:49;;;;;;;2.90;2.60;;;;;;;;;;5012009;28;20183;-76
2022/09/04 04:28:18;;;;;;;2.50;2.30;;;;;;;;;;5011926;28;20261;-76
2022/09/04 04:30:51;;;;;;;2.53;2.33;;;;;;;;;;5011927;28;20203;-77
2022/09/04 04:33:23;;;;;;;2.47;2.27;;;;;;;;;;5011754;28;20206;-77
2022/09/04 04:36:02;;;;;;;3.87;2.50;;;;;;;;;;5011755;28;20633;-77
2022/09/04 04:38:31;;;;;;;1.60;1.50;;;;;;;;;;5011753;28;20174;-77
2022/09/04 04:41:03;;;;;;;1.73;1.63;;;;;;;;;;5011453;28;20199;-76
2022/09/04 04:43:35;;;;;;;1.70;1.60;;;;;;;;;;5012980;28;20642;-77
2022/09/04 04:46:20;;;;;;;1.30;1.20;;;;;;;;;;5011581;28;20551;-77
2022/09/04 04:49:06;;;;;;;1.57;1.40;;;;;;;;;;5011619;28;20225;-76
2022/09/04 04:51:51;;;;;;;1.30;1.20;;;;;;;;;;5011453;28;20197;-77
2022/09/04 04:54:21;;;;;;;1.50;1.40;;;;;;;;;;5011410;28;20190;-76
2022/09/04 04:56:57;;;;;;;1.57;1.20;;;;;;;;;;5011446;28;20174;-76
2022/09/04 04:59:27;;;;;;;1.60;1.50;;;;;;;;;;5011320;28;20252;-77
2022/09/04 05:02:13;;;;;;;1.17;1.13;;;;;;;;;;5011420;28;20191;-77
2022/09/04 05:04:44;;;;;;;1.43;1.33;;;;;;;;;;5011337;28;20171;-77
2022/09/04 05:07:17;;;;;;;1.40;1.30;;;;;;;;;;5012482;28;20198;-76
2022/09/04 05:09:49;;;;;;;1.63;1.53;;;;;;;;;;5011242;28;20196;-76
2022/09/04 05:12:27;;;;;;;2.03;1.30;;;;;;;;;;5011408;28;20195;-76
2022/09/04 05:15:16;;;;;;;1.80;1.70;;;;;;;;;;5011073;28;20263;-76
2022/09/04 05:17:54;;;;;;;1.30;1.20;;;;;;;;;;5011455;28;20189;-76
2022/09/04 05:20:23;;;;;;;1.73;1.50;;;;;;;;;;5011152;28;20177;-76
2022/09/04 05:22:52;;;;;;;1.77;1.60;;;;;;;;;;5010549;28;20286;-76
2022/09/04 05:25:27;;;;;;;2.47;1.67;;;;;;;;;;5010983;28;20171;-76
2022/09/04 05:27:56;;;;;;;2.07;1.53;;;;;;;;;;5011018;28;20215;-76
2022/09/04 05:30:28;;;;;;;1.37;1.27;;;;;;;;;;5011094;28;20207;-76
2022/09/04 05:32:57;;;;;;;3.23;1.47;;;;;;;;;;5010892;28;20617;-76
2022/09/04 05:35:45;;;;;;;1.90;1.57;;;;;;;;;;5011073;28;20173;-76
2022/09/04 05:38:15;;;;;;;1.67;1.57;;;;;;;;;;5012429;28;20183;-76
2022/09/04 05:41:00;;;;;;;2.83;2.23;;;;;;;;;;5010971;28;20233;-75
2022/09/04 05:43:33;;;;;;;2.20;1.67;;;;;;;;;;5012249;28;20201;-76
2022/09/04 05:46:03;;;;;;;2.43;1.90;;;;;;;;;;5011022;28;20222;-77
2022/09/04 05:48:35;;;;;;;1.77;1.60;;;;;;;;;;5012225;28;20194;-76
2022/09/04 05:51:07;;;;;;;1.50;1.40;;;;;;;;;;5011896;28;20186;-76
2022/09/04 05:53:45;;;;;;;1.70;1.60;;;;;;;;;;5010989;28;20226;-76
2022/09/04 05:56:17;;;;;;;1.53;1.43;;;;;;;;;;5010881;28;20213;-76
2022/09/04 05:59:02;;;;;;;1.80;1.60;;;;;;;;;;5011833;28;20214;-76
2022/09/04 06:01:28;;;;;;;1.53;1.43;;;;;;;;;;5011966;28;20249;-76
2022/09/04 06:04:06;;;;;;;2.07;1.60;;;;;;;;;;5010937;28;20183;-76
2022/09/04 06:06:32;;;;;;;2.23;1.73;;;;;;;;;;5010911;28;20189;-78
2022/09/04 06:09:07;;;;;;;2.00;1.70;;;;;;;;;;5010584;28;20547;-76
2022/09/04 06:11:36;;;;;;;1.33;1.23;;;;;;;;;;5010693;28;20194;-76
2022/09/04 06:14:21;;;;;;;2.40;1.70;;;;;;;;;;5012092;28;20182;-76
2022/09/04 06:16:56;;;;;;;1.80;1.47;;;;;;;;;;5011918;28;20187;-76
2022/09/04 06:19:42;;;;;;;2.17;1.97;;;;;;;;;;5010449;28;20273;-77
2022/09/04 06:22:11;;;;;;;2.97;1.90;;;;;;;;;;5010578;28;20210;-77
2022/09/04 06:24:57;;;;;;;2.73;1.80;;;;;;;;;;5010930;28;20174;-77
2022/09/04 06:27:41;;;;;;;1.90;1.70;;;;;;;;;;5010535;28;20209;-77
2022/09/04 06:30:12;;;;;;;1.70;1.60;;;;;;;;;;5004265;28;20210;-76
2022/09/04 06:32:53;;;;;;;1.97;1.77;;;;;;;;;;4994186;28;20203;-76
2022/09/04 06:35:31;;;;;;;2.00;1.80;;;;;;;;;;5011858;28;20171;-76
2022/09/04 06:38:06;;;;;;;2.30;2.10;;;;;;;;;;5014045;28;20190;-77
2022/09/04 06:40:41;;;;;;;2.40;2.00;;;;;;;;;;5013570;28;20181;-76
2022/09/04 06:43:07;;;;;;;2.80;1.87;;;;;;;;;;5013972;28;20619;-77
2022/09/04 06:45:52;;;;;;;5.00;2.20;;;;;;;;;;5013926;28;20187;-76
2022/09/04 06:48:48;;;;;;;1.97;1.60;;;;;;;;;;5013497;28;20219;-76
2022/09/04 06:51:17;;;;;;;1.63;1.30;;;;;;;;;;4954631;28;20211;-76
2022/09/04 06:54:07;;;;;;;2.60;2.10;;;;;;;;;;5013514;28;20214;-76
2022/09/04 06:56:48;;;;;;;2.80;1.90;;;;;;;;;;5013525;28;20229;-76
2022/09/04 06:59:29;;;;;;;3.23;2.20;;;;;;;;;;5013256;28;20170;-76
2022/09/04 07:01:59;;;;;;;2.70;1.90;;;;;;;;;;5013767;28;20194;-76
2022/09/04 07:04:43;;;;;;;2.37;2.17;;;;;;;;;;5014748;28;20167;-76
2022/09/04 07:07:09;;;;;;;2.10;1.53;;;;;;;;;;5014216;28;20198;-76
2022/09/04 07:09:41;;;;;;;1.40;1.30;;;;;;;;;;5013162;28;20652;-77
2022/09/04 07:12:10;;;;;;;1.60;1.13;;;;;;;;;;5012572;28;20214;-76
2022/09/04 07:14:42;;;;;;;1.77;1.57;;;;;;;;;;5004101;28;20289;-76
2022/09/04 07:17:14;;;;;;;1.40;1.30;;;;;;;;;;5013395;28;20175;-76
2022/09/04 07:19:40;;;;;;;1.60;1.50;;;;;;;;;;5011505;28;20554;-77
2022/09/04 07:22:25;;;;;;;1.60;1.50;;;;;;;;;;5009713;28;20211;-77
2022/09/04 07:25:02;;;;;;;1.97;1.40;;;;;;;;;;5013195;28;20183;-77
2022/09/04 07:28:06;;;;;;;1.90;1.70;;;;;;;;;;5013511;28;20289;-77
2022/09/04 07:30:38;;;;;;;2.00;1.67;;;;;;;;;;4957429;28;20651;-77
2022/09/04 07:33:07;;;;;;;1.70;1.60;;;;;;;;;;4957346;28;20183;-77
2022/09/04 07:35:36;;;;;;;1.83;1.70;;;;;;;;;;4985690;28;20183;-77
2022/09/04 07:38:08;;;;;;;2.00;1.70;;;;;;;;;;5013345;28;20183;-77
2022/09/04 07:40:46;;;;;;;1.77;1.63;;;;;;;;;;5014793;28;20236;-77
2022/09/04 07:43:16;;;;;;;1.80;1.47;;;;;;;;;;5012909;28;20551;-77
2022/09/04 07:45:47;;;;;;;2.30;2.10;;;;;;;;;;5004570;28;20206;-76
2022/09/04 07:48:27;;;;;;;2.10;1.80;;;;;;;;;;5008328;28;20195;-77
2022/09/04 07:51:06;;;;;;;1.87;1.63;;;;;;;;;;5009358;28;20190;-77
2022/09/04 07:53:43;;;;;;;2.63;2.10;;;;;;;;;;5008254;28;20225;-77
2022/09/04 07:56:46;;;;;;;2.70;1.90;;;;;;;;;;5012551;28;20218;-77
2022/09/04 07:59:26;;;;;;;1.70;1.60;;;;;;;;;;4936768;29;20187;-77
2022/09/04 08:01:52;;;;;;;1.63;1.30;;;;;;;;;;5005306;28;20203;-77
2022/09/04 08:04:45;;;;;;;1.70;1.60;;;;;;;;;;5008654;28;20237;-77
2022/09/04 08:07:22;;;;;;;1.70;1.60;;;;;;;;;;4996736;28;20768;-77
2022/09/04 08:09:47;;;;;;;1.77;1.50;;;;;;;;;;5010947;28;20182;-77
2022/09/04 08:12:24;;;;;;;2.13;1.43;;;;;;;;;;5011864;28;20198;-77
2022/09/04 08:14:53;;;;;;;2.20;1.70;;;;;;;;;;5011867;28;20175;-77
2022/09/04 08:17:41;;;;;;;1.80;1.70;;;;;;;;;;5012293;28;20237;-76
2022/09/04 08:20:14;;;;;;;2.20;1.70;;;;;;;;;;5011801;28;20185;-77
2022/09/04 08:22:46;;;;;;;2.57;1.57;;;;;;;;;;5011843;28;20202;-77
2022/09/04 08:25:20;;;;;;;3.47;1.83;;;;;;;;;;5012039;28;20183;-76
2022/09/04 08:27:55;;;;;;;1.97;1.63;;;;;;;;;;5011724;28;20724;-76
2022/09/04 08:30:21;;;;;;;1.40;1.27;;;;;;;;;;5008179;28;20179;-76
2022/09/04 08:33:10;;;;;;;2.00;1.53;;;;;;;;;;4995791;28;20207;-76
2022/09/04 08:35:45;;;;;;;1.70;1.60;;;;;;;;;;5011813;28;20175;-77
2022/09/04 08:38:11;;;;;;;2.67;1.70;;;;;;;;;;5000091;28;20187;-77
2022/09/04 08:40:56;;;;;;;1.83;1.73;;;;;;;;;;5004220;28;20277;-77
2022/09/04 08:43:43;;;;;;;1.47;1.37;;;;;;;;;;4992021;28;20184;-76
2022/09/04 08:46:24;;;;;;;1.53;1.43;;;;;;;;;;4991644;28;20202;-76
2022/09/04 08:49:09;;;;;;;1.53;1.43;;;;;;;;;;4991798;28;20218;-75
2022/09/04 08:51:41;;;;;;;1.08;0.98;;;;;;;;;;4990928;28;20204;-76
2022/09/04 08:54:10;;;;;;;1.40;1.30;;;;;;;;;;4991714;28;20277;-76
2022/09/04 08:57:05;;;;;;;1.05;1.00;;;;;;;;;;4995696;28;20657;-77
2022/09/04 08:59:43;;;;;;;1.10;1.00;;;;;;;;;;5007879;28;20171;-76
2022/09/04 09:02:15;;;;;;;1.30;1.20;;;;;;;;;;5011149;28;20195;-76
2022/09/04 09:04:46;;;;;;;1.00;0.95;;;;;;;;;;5011550;28;20171;-76
2022/09/04 09:07:27;;;;;;;2.53;1.95;;;;;;;;;;5011422;28;20219;-76
2022/09/04 09:10:13;;;;;;;2.05;1.10;;;;;;;;;;5012420;28;20175;-75
2022/09/04 09:12:49;;;;;;;2.08;1.60;;;;;;;;;;5011377;28;20191;-78
2022/09/04 09:15:15;;;;;;;7.45;6.60;;;;;;;;;;5011413;28;20201;-76
2022/09/04 09:17:57;;;;;;;22.27;6.40;;;;;;;;;;5012248;28;20178;-77
2022/09/04 09:20:27;;;;;;;1.90;1.80;;;;;;;;;;5010912;28;20175;-77
2022/09/04 09:22:59;;;;;;;60.33;8.15;;;;;;;;;;5010991;28;20198;-76
2022/09/04 09:25:31;;;;;;;1.65;1.40;;;;;;;;;;5011216;28;20185;-77
2022/09/04 09:28:15;;;;;;;1.30;1.20;;;;;;;;;;5011124;28;20202;-77
2022/09/04 09:31:01;;;;;;;1.08;0.95;;;;;;;;;;5012247;28;20167;-77
2022/09/04 09:33:38;;;;;;;1.20;1.05;;;;;;;;;;5012254;28;20174;-77
2022/09/04 09:36:28;;;;;;;1.50;1.40;;;;;;;;;;5011249;28;20175;-78
2022/09/04 09:39:13;;;;;;;2.50;1.40;;;;;;;;;;5012067;28;20171;-77
2022/09/04 09:41:52;;;;;;;1.30;1.20;;;;;;;;;;5012212;28;20673;-77
2022/09/04 09:44:18;;;;;;;1.60;1.50;;;;;;;;;;5011104;28;20175;-78
2022/09/04 09:46:44;;;;;;;1.83;1.30;;;;;;;;;;5011077;28;20174;-77
2022/09/04 09:49:28;;;;;;;1.70;1.60;;;;;;;;;;5012000;28;20171;-77
2022/09/04 09:52:12;;;;;;;3.30;2.45;;;;;;;;;;5010712;28;20285;-78
2022/09/04 09:54:57;;;;;;;2.00;1.80;;;;;;;;;;5010748;28;20171;-77
2022/09/04 09:57:23;;;;;;;3.20;2.00;;;;;;;;;;5010753;28;20182;-77
2022/09/04 10:00:01;;;;;;;2.67;1.95;;;;;;;;;;5010644;28;20179;-78
2022/09/04 10:02:42;;;;;;;1.95;1.23;;;;;;;;;;5010721;28;20195;-77
2022/09/04 10:05:11;;;;;;;1.75;1.30;;;;;;;;;;5010803;28;20265;-76
2022/09/04 10:07:37;;;;;;;1.95;1.70;;;;;;;;;;5012117;28;20203;-75
2022/09/04 10:10:03;;;;;;;4.72;3.00;;;;;;;;;;5013041;28;20181;-75
2022/09/04 10:12:32;;;;;;;2.95;2.30;;;;;;;;;;5014259;28;20222;-75
2022/09/04 10:15:16;;;;;;;1.58;1.35;;;;;;;;;;5014401;28;20222;-75
2022/09/04 10:17:41;;;;;;;2.00;1.40;;;;;;;;;;5006346;28;20179;-74
2022/09/04 10:20:07;;;;;;;1.40;1.30;;;;;;;;;;5013853;28;20182;-75
2022/09/04 10:22:51;;;;;;;1.98;1.35;;;;;;;;;;5015398;28;20290;-74
2022/09/04 10:25:27;;;;;;;1.63;1.42;;;;;;;;;;5014059;28;20561;-75
2022/09/04 10:28:12;;;;;;;1.85;1.33;;;;;;;;;;5015325;28;20201;-74
2022/09/04 10:30:58;;;;;;;1.30;1.20;;;;;;;;;;5014077;28;20650;-74
2022/09/04 10:33:53;;;;;;;1.30;1.20;;;;;;;;;;5015428;28;20220;-74
2022/09/04 10:36:34;;;;;;;1.10;1.00;;;;;;;;;;4979257;28;20188;-74
2022/09/04 10:41:59;;;;;;;2.08;1.20;;;;;;;;;;5015287;28;20198;-76
2022/09/04 10:44:48;;;;;;;1.20;1.10;;;;;;;;;;5013769;28;20174;-75
2022/09/04 10:47:47;;;;;;;1.10;1.00;;;;;;;;;;5013694;28;20237;-75
2022/09/04 10:50:32;;;;;;;0.70;0.70;;;;;;;;;;4981199;28;20341;-75
2022/09/04 10:53:19;;;;;;;0.80;0.80;;;;;;;;;;5013666;28;20207;-75
2022/09/04 10:56:18;;;;;;;0.93;0.90;;;;;;;;;;5013619;28;20167;-75
2022/09/04 10:59:02;;;;;;;2.45;1.20;;;;;;;;;;4981417;28;20214;-75
2022/09/04 11:01:40;;;;;;;1.17;1.02;;;;;;;;;;5013551;28;20195;-76
2022/09/04 11:04:12;;;;;;;1.25;1.15;;;;;;;;;;5013680;28;20171;-76
2022/09/04 11:06:56;;;;;;;1.20;1.10;;;;;;;;;;5013312;28;20266;-74
2022/09/04 11:09:27;;;;;;;2.05;1.00;;;;;;;;;;5013030;28;20689;-75
2022/09/04 11:12:01;;;;;;;1.10;0.95;;;;;;;;;;5013436;28;20568;-77
2022/09/04 11:14:52;;;;;;;1.30;1.20;;;;;;;;;;5013294;28;20228;-76
2022/09/04 11:17:29;;;;;;;2.25;1.13;;;;;;;;;;5013207;28;20254;-76
2022/09/04 11:20:14;;;;;;;2.70;1.13;;;;;;;;;;5014024;28;20175;-76
2022/09/04 11:22:42;;;;;;;1.10;1.00;;;;;;;;;;5014079;28;20194;-76
2022/09/04 11:25:27;;;;;;;1.20;1.10;;;;;;;;;;5013059;28;20181;-76
2022/09/04 11:27:53;;;;;;;1.08;1.00;;;;;;;;;;5012818;28;20202;-76
2022/09/04 11:30:39;;;;;;;0.75;0.70;;;;;;;;;;5012672;28;20233;-76
2022/09/04 11:33:05;;;;;;;0.68;0.68;;;;;;;;;;4973486;28;20179;-76
2022/09/04 11:35:54;;;;;;;0.90;0.90;;;;;;;;;;5012878;28;20179;-76
2022/09/04 11:38:20;;;;;;;1.08;0.95;;;;;;;;;;5012563;28;20189;-76
2022/09/04 11:40:55;;;;;;;1.40;1.13;;;;;;;;;;5012631;28;20266;-76
2022/09/04 11:43:51;;;;;;;1.20;1.10;;;;;;;;;;5012660;28;20221;-76
2022/09/04 11:46:35;;;;;;;1.23;1.10;;;;;;;;;;4995423;28;20179;-76
2022/09/04 11:49:09;;;;;;;1.63;1.17;;;;;;;;;;5012615;28;20175;-76
2022/09/04 11:51:54;;;;;;;1.10;1.00;;;;;;;;;;5012568;28;20607;-76
2022/09/04 11:54:38;;;;;;;1.45;1.35;;;;;;;;;;5012699;28;20179;-76
2022/09/04 11:57:12;;;;;;;2.17;1.70;;;;;;;;;;5012458;28;20174;-76
2022/09/04 12:00:01;;;;;;;0.80;0.80;;;;;;;;;;5013647;28;20179;-76
2022/09/04 12:02:46;;;;;;;1.20;0.95;;;;;;;;;;5012270;28;20689;-76
2022/09/04 12:05:37;;;;;;;1.20;1.10;;;;;;;;;;5010405;28;20175;-76
2022/09/04 12:08:16;;;;;;;1.08;1.00;;;;;;;;;;5006908;28;20275;-77
2022/09/04 12:10:42;;;;;;;1.40;1.30;;;;;;;;;;5013201;28;20622;-76
2022/09/04 12:13:20;;;;;;;0.95;0.93;;;;;;;;;;5012271;28;20175;-76
2022/09/04 12:15:58;;;;;;;0.85;0.85;;;;;;;;;;5012281;28;20700;-77
2022/09/04 12:18:54;;;;;;;1.27;0.70;;;;;;;;;;5010462;28;20179;-77
2022/09/04 12:21:35;;;;;;;0.80;0.60;;;;;;;;;;4995564;28;20210;-77
2022/09/04 12:24:04;;;;;;;1.05;0.80;;;;;;;;;;5012485;28;20645;-75
2022/09/04 12:26:39;;;;;;;0.70;0.70;;;;;;;;;;5011311;28;20197;-75
2022/09/04 12:29:05;;;;;;;1.25;1.15;;;;;;;;;;5011819;28;20233;-75
2022/09/04 12:31:45;;;;;;;0.98;0.98;;;;;;;;;;5012710;28;20717;-76
2022/09/04 12:34:11;;;;;;;1.40;1.30;;;;;;;;;;5012107;28;20175;-77
2022/09/04 12:36:58;;;;;;;1.30;1.20;;;;;;;;;;5009964;28;20175;-77
2022/09/04 12:39:36;;;;;;;1.33;1.23;;;;;;;;;;5011387;28;20265;-76
2022/09/04 12:42:08;;;;;;;1.17;1.08;;;;;;;;;;4992115;28;20688;-77
2022/09/04 12:44:34;;;;;;;1.30;1.20;;;;;;;;;;4992253;28;20630;-76
2022/09/04 12:47:07;;;;;;;1.63;1.30;;;;;;;;;;5001079;28;20329;-75
2022/09/04 12:49:47;;;;;;;1.35;1.00;;;;;;;;;;5011880;28;20166;-75
2022/09/04 12:52:21;;;;;;;0.80;0.80;;;;;;;;;;5011688;28;20648;-76
2022/09/04 12:54:49;;;;;;;1.23;1.08;;;;;;;;;;4992288;28;20177;-75
2022/09/04 12:57:15;;;;;;;1.23;1.02;;;;;;;;;;4991986;28;20175;-76
2022/09/04 12:59:47;;;;;;;1.13;1.05;;;;;;;;;;4991674;28;20178;-75
2022/09/04 13:02:26;;;;;;;0.93;0.90;;;;;;;;;;4991680;28;20273;-77
2022/09/04 13:05:11;;;;;;;1.27;1.17;;;;;;;;;;4993369;28;20689;-77
2022/09/04 13:07:55;;;;;;;1.17;1.08;;;;;;;;;;4998289;22;20228;-77
2022/09/04 13:10:24;;;;;;;1.08;0.90;;;;;;;;;;4934827;29;20181;-77
2022/09/04 13:12:56;;;;;;;2.47;1.20;;;;;;;;;;4933365;29;20716;-77
2022/09/04 13:15:32;;;;;;;1.17;1.10;;;;;;;;;;4933579;29;20197;-78
2022/09/04 13:17:58;;;;;;;0.90;0.90;;;;;;;;;;4934895;29;20234;-77
2022/09/04 13:20:24;;;;;;;1.83;1.25;;;;;;;;;;4934039;29;20186;-77
2022/09/04 13:22:53;;;;;;;2.30;1.20;;;;;;;;;;4933247;29;20173;-77
2022/09/04 13:25:44;;;;;;;1.23;1.13;;;;;;;;;;4933975;29;20650;-77
2022/09/04 13:28:36;;;;;;;1.08;0.98;;;;;;;;;;4933358;29;20301;-77
2022/09/04 13:31:02;;;;;;;1.25;1.10;;;;;;;;;;4935362;29;20176;-77
2022/09/04 13:33:38;;;;;;;1.83;1.50;;;;;;;;;;4933838;29;20328;-77
2022/09/04 13:36:15;;;;;;;3.50;1.20;;;;;;;;;;4934839;29;20268;-77
2022/09/04 13:39:00;;;;;;;1.35;1.25;;;;;;;;;;4933831;29;20192;-77
2022/09/04 13:41:38;;;;;;;1.45;1.33;;;;;;;;;;4934921;29;20265;-77
2022/09/04 13:44:07;;;;;;;1.20;1.10;;;;;;;;;;4935212;29;20269;-77
2022/09/04 13:46:41;;;;;;;2.80;1.27;;;;;;;;;;4938392;29;20694;-77
2022/09/04 13:49:10;;;;;;;4.13;1.20;;;;;;;;;;4937998;29;20592;-77
2022/09/04 13:51:46;;;;;;;1.20;1.10;;;;;;;;;;4936883;29;20180;-77
2022/09/04 13:54:33;;;;;;;1.20;1.00;;;;;;;;;;4942986;29;20165;-77
2022/09/04 13:57:19;;;;;;;1.33;1.23;;;;;;;;;;4941525;28;20284;-77
2022/09/04 13:59:48;;;;;;;1.50;1.00;;;;;;;;;;4955771;28;20173;-77
2022/09/04 14:02:18;;;;;;;1.33;1.20;;;;;;;;;;4940173;28;20182;-77
2022/09/04 14:04:47;;;;;;;0.80;0.80;;;;;;;;;;4956292;28;20181;-77
2022/09/04 14:07:18;;;;;;;1.90;0.73;;;;;;;;;;4956984;28;20578;-77
2022/09/04 14:09:47;;;;;;;1.00;1.00;;;;;;;;;;4936086;28;20186;-77
2022/09/04 14:12:32;;;;;;;1.25;1.00;;;;;;;;;;4929482;29;20550;-77
2022/09/04 14:15:18;;;;;;;0.80;0.80;;;;;;;;;;4934356;29;20174;-77
2022/09/04 14:18:03;;;;;;;1.17;0.82;;;;;;;;;;4935320;29;20208;-77
2022/09/04 14:20:43;;;;;;;0.80;0.80;;;;;;;;;;4934670;29;20243;-77
2022/09/04 14:23:25;;;;;;;1.25;1.15;;;;;;;;;;4935868;29;20244;-77
2022/09/04 14:26:11;;;;;;;0.73;0.73;;;;;;;;;;4940802;29;20240;-77
2022/09/04 14:28:49;;;;;;;1.08;0.98;;;;;;;;;;4940837;29;20190;-77
2022/09/04 14:31:15;;;;;;;1.13;1.02;;;;;;;;;;4939342;28;20203;-77
2022/09/04 14:34:12;;;;;;;1.52;0.90;;;;;;;;;;4934637;28;20174;-77
2022/09/04 14:36:57;;;;;;;1.77;1.10;;;;;;;;;;4921900;29;20205;-77
2022/09/04 14:39:35;;;;;;;1.23;1.13;;;;;;;;;;4945718;29;20397;-77
2022/09/04 14:42:11;;;;;;;0.80;0.80;;;;;;;;;;4939913;29;20234;-77
2022/09/04 14:44:43;;;;;;;1.63;1.00;;;;;;;;;;4944317;28;20240;-77
2022/09/04 14:47:10;;;;;;;1.45;1.10;;;;;;;;;;4922625;29;20206;-77
2022/09/04 14:49:41;;;;;;;1.40;1.30;;;;;;;;;;4916126;29;20167;-77
2022/09/04 14:52:20;;;;;;;1.17;1.00;;;;;;;;;;4901996;29;20178;-77
2022/09/04 14:54:50;;;;;;;1.73;1.10;;;;;;;;;;4914610;29;20183;-77
2022/09/04 14:57:16;;;;;;;1.20;1.10;;;;;;;;;;4913880;29;20202;-77
2022/09/04 14:59:45;;;;;;;1.27;1.17;;;;;;;;;;4914157;29;20185;-77
2022/09/04 15:02:18;;;;;;;1.27;1.10;;;;;;;;;;4919930;29;20312;-77
2022/09/04 15:04:53;;;;;;;1.33;1.23;;;;;;;;;;4933807;29;20170;-77
2022/09/04 15:07:28;;;;;;;2.13;1.33;;;;;;;;;;4933644;29;20217;-77
2022/09/04 15:10:05;;;;;;;1.33;1.20;;;;;;;;;;4933274;29;20632;-77
2022/09/04 15:12:33;;;;;;;1.30;1.20;;;;;;;;;;4933939;29;20212;-77
2022/09/04 15:15:13;;;;;;;1.30;1.20;;;;;;;;;;4934278;29;20181;-77
2022/09/04 15:17:44;;;;;;;1.05;0.90;;;;;;;;;;4934154;29;20193;-81
2022/09/04 15:20:19;;;;;;;2.42;1.35;;;;;;;;;;4922742;29;20182;-77
2022/09/04 15:22:46;;;;;;;1.30;1.20;;;;;;;;;;4914260;29;20162;-77
2022/09/04 15:25:25;;;;;;;1.50;1.23;;;;;;;;;;4915089;29;20202;-77
2022/09/04 15:28:07;;;;;;;1.48;1.20;;;;;;;;;;4915986;29;20198;-77
2022/09/04 15:30:36;;;;;;;1.15;1.05;;;;;;;;;;4915159;29;20236;-77
2022/09/04 15:33:10;;;;;;;1.15;1.05;;;;;;;;;;4915338;29;20178;-77
2022/09/04 15:35:37;;;;;;;2.95;1.10;;;;;;;;;;4914785;29;20167;-77
2022/09/04 15:38:19;;;;;;;1.23;1.13;;;;;;;;;;4899056;29;20260;-77
2022/09/04 15:40:56;;;;;;;1.20;1.10;;;;;;;;;;4914813;29;20861;-77